Agana Heights, GU

7:24 PM ChST on September 04, 2015 (GMT +1000)
Maite | | Change Station
CLOSE
Current Station
Personal Weather Station
Location: Maite, GU
Elevation: 140 ft
Nearby Weather Stations

Elev 140 ft 13.48 °N, 144.76 °E | Updated 15 seconds ago

Mostly Cloudy
Mostly Cloudy
82.3 °F
Feels Like 92 °F
N
3.0
Wind Variable Wind from NNW
Gusts 5.0 mph

Today
High -- | Low -- °F
--% Chance of Precip.
Yesterday
High -- | Low -- °F
Precip. -- in
6:09 AM 6:30 PM
Waning Gibbous, 61% visible
Pressure 29.77 in
Visibility 10.0 miles
Clouds Few 2000 ft
Mostly Cloudy 3100 ft
Heat Index 92 °F
Dew Point 78 °F
Humidity 87%
Rainfall 0.27 in
Snow Depth Not available.
UV 0.0 out of 12
Pollen Not available.
Air Quality Not available.
Flu Activity Not available.
METAR PGUM 040854Z 34003KT 10SM FEW020 BKN031 27/24 A2979 RMK AO2 SLP080 T02670244 53013 $
Pressure 29.77 in
Visibility 10.0 miles
Clouds Few 2000 ft
Mostly Cloudy 3100 ft
Heat Index 92 °F
Dew Point 78 °F
Humidity 87%
Rainfall 0.27 in
Snow Depth Not available.
UV 0.0 out of 12
Pollen Not available.
Air Quality Not available.
Flu Activity Not available.
METAR PGUM 040854Z 34003KT 10SM FEW020 BKN031 27/24 A2979 RMK AO2 SLP080 T02670244 53013 $

10-Day Weather Forecast

×

Almanac

Astronomy

Sep. 04, 2015 Rise Set
Actual Time
Civil Twilight
Nautical Twilight
Astronomical Twilight
Moon
Length of Visible Light
Length of Day
Tomorrow will be .
, % of the Moon is Illuminated

Today's Extremes

State Highs State Lows

Community

WunderPhotos

Upload Photos

1,852,142 photos uploaded!

WunderBlogs® & News

Nearby

Air Quality

  Air Quality AQ Index Pollutant
Not available.

Snow Depth

Station Depth Elevation

Earthquake Activity

City Distance Mag. Time & Date
Minimum magnitude displayed is 2.5.

Coastal Water Temperatures

Place Temperature

Stations

Nearby Weather Stations

Station Location Temp. Windchill Dew Point Humidity Wind Precip. Elev Updated Type